Language selection

My Weather Profile Weather Topics  | 

Strait of Georgia - north of Nanaimo: Past 24 Hour Conditions

 

Georgia Strait - 46303

11:00 PM PST 01 February 2023Buoy position: 49.03N 123.43W
Disclaimer

This table is a summary of hourly weather conditions for the past 24 hours.
Please note that these observations might not always be representative of weather conditions over their associated marine area.

Date / Time
(PST)
Wind(knots) Wave height(m) Wave period(s) Pressure(kPa) Air tempC) Water tempC)
01 February 2023
23:00 E 5 gust 5 0.2 2.8 102.1 5 6
22:00 ENE 6 gust 6 0.2 2.5 102.1 5 6
21:00 ENE 5 gust 6 0.2 2.5 102.1 5 6
20:00 ESE 7 gust 9 0.2 2.5 102.1 5 6
19:00 ESE 8 gust 10 0.2 2.6 102.1 5 6
18:00 E 6 gust 8 0.2 2.6 102.1 5 6
17:00 E 6 gust 8 N/A N/A 102.1 5 7
16:00 E 6 gust 7 0.3 2.5 102.1 5 7
15:00 ENE 8 gust 10 0.4 2.6 102.1 5 6
14:00 E 9 gust 11 0.4 2.5 102.1 5 7
13:00 E 12 gust 13 0.4 2.7 102.1 5 6
12:00 E 10 gust 11 0.3 2.6 102.1 4 6
11:00 E 9 gust 10 0.4 2.7 102.2 4 6
10:00 E 11 gust 12 0.3 2.5 102.1 4 6
9:00 E 9 gust 11 0.4 2.5 102.1 4 6
8:00 E 11 gust 12 0.4 2.6 102.1 4 6
7:00 E 12 gust 14 0.4 2.7 102.1 3 6
6:00 E 12 gust 15 0.4 2.6 102.1 3 6
5:00 E 11 gust 13 0.4 2.6 102.1 3 6
4:00 E 12 gust 15 0.4 2.3 102.1 3 6
3:00 E 12 gust 15 0.3 2.3 102.2 2 6
2:00 E 12 gust 14 0.4 2.4 102.2 2 6
1:00 ENE 11 gust 14 0.3 2.3 102.2 2 6
0:00 E 12 gust 16 0.2 2.2 102.2 2 6
31 January 2023
23:00 E 11 gust 13 0.2 2.6 102.2 2 6

Zoom-in to make a selection

Map of Pacific - Georgia Basin marine weather areas Sentry Shoal - 46131 Halibut Bank - 46146 La Perouse Bank - 46206 Georgia Strait - 46303 English Bay - 46304 Discovery Island Esquimalt Harbour Kelp Reefs Malahat Race Rocks Lightstation Saturna Island Sheringham Point University of Victoria Victoria Gonzales Victoria Int'l Airport Ballenas Islands Campbell River Airport Comox Airport Entrance Island Fanny Island Nanaimo Airport Sisters Islets Estevan Point Port Alberni Tofino Airport Grief Point Howe Sound - Pam Rocks Powell River Airport Sechelt Squamish Airport Point Atkinson Sand Heads Lightstation Tsawwassen Ferry Terminal Vancouver Int'l Airport Vancouver Harbour West Vancouver
Legend:
buoy Buoy
land station Land Station

Pacific - Georgia Basin Area

Another Region

What we are doing

Date modified: